Time;durP1;ratioP1;P1;durP2;ratioP2;P2;SDS_P1;SDS_P2;PMS_P1;PMS_P2;Temp;Humidity;BMP_temperature;BMP_pressure;BME280_temperature;BME280_humidity;BME280_pressure;Samples;Min_cycle;Max_cycle;Signal;HPM_P1;HPM_P2
2022/09/02 00:01:31;;;;;;;3.90;2.20;;;;;;;16.05;48.29;99501.58;25156;1309;3027722;-58
2022/09/02 00:04:04;;;;;;;6.60;2.10;;;;;;;16.01;48.26;99504.50;25117;1309;3052091;-59
2022/09/02 00:06:33;;;;;;;5.30;1.70;;;;;;;15.98;48.51;99508.16;25139;1309;3026472;-58
2022/09/02 00:09:04;;;;;;;4.30;1.90;;;;;;;15.97;48.60;99513.33;25162;1309;3026307;-61
2022/09/02 00:11:34;;;;;;;4.00;1.70;;;;;;;15.89;48.82;99513.96;25155;1309;3026091;-61
2022/09/02 00:14:06;;;;;;;3.60;1.70;;;;;;;15.88;48.87;99512.11;25130;1309;3026537;-61
2022/09/02 00:16:36;;;;;;;6.20;1.90;;;;;;;15.93;48.76;99515.79;25160;1310;3030328;-59
2022/09/02 00:19:05;;;;;;;3.90;1.60;;;;;;;15.88;48.65;99515.27;25141;1309;3026834;-59
2022/09/02 00:21:34;;;;;;;5.40;1.70;;;;;;;15.80;49.07;99518.98;25083;1309;3026459;-58
2022/09/02 00:24:04;;;;;;;3.90;1.70;;;;;;;15.72;49.16;99518.35;25149;1309;3026780;-56
2022/09/02 00:26:33;;;;;;;8.50;1.70;;;;;;;15.74;49.03;99520.61;25212;1309;3050675;-62
2022/09/02 00:29:03;;;;;;;3.20;1.60;;;;;;;15.72;49.08;99527.19;25125;1309;3026874;-62
2022/09/02 00:31:32;;;;;;;4.40;1.80;;;;;;;15.70;49.27;99529.60;25099;1309;3054977;-62
2022/09/02 00:34:02;;;;;;;5.80;2.50;;;;;;;15.61;49.59;99538.14;25178;1309;3026314;-60
2022/09/02 00:36:32;;;;;;;4.50;1.80;;;;;;;15.55;49.74;99541.06;25205;1309;3049221;-58
2022/09/02 00:39:06;;;;;;;6.40;2.30;;;;;;;15.47;49.84;99540.48;25124;1312;3026106;-61
2022/09/02 00:41:35;;;;;;;;;;;;;;;15.41;49.86;99544.96;25194;1309;3051855;-57
2022/09/02 00:44:07;;;;;;;3.70;2.00;;;;;;;15.30;50.38;99547.81;25065;1312;3026914;-58
2022/09/02 00:46:36;;;;;;;5.00;2.20;;;;;;;15.28;50.61;99551.49;25125;1309;3027178;-60
2022/09/02 00:49:22;;;;;;;5.00;2.00;;;;;;;15.33;50.65;99552.20;25168;1309;3026570;-59
2022/09/02 00:51:53;;;;;;;9.10;2.00;;;;;;;15.29;50.61;99556.04;25127;1309;3071744;-60
2022/09/02 00:54:23;;;;;;;7.90;2.40;;;;;;;15.25;51.04;99556.98;25103;1312;3028018;-58
2022/09/02 00:56:52;;;;;;;5.10;2.40;;;;;;;15.24;50.95;99562.04;25141;1309;3027282;-58
2022/09/02 00:59:50;;;;;;;5.90;1.80;;;;;;;15.19;51.08;99560.52;25138;1309;3027148;-60
2022/09/02 01:02:22;;;;;;;4.70;2.50;;;;;;;15.12;51.18;99557.90;25146;1309;3049539;-61
2022/09/02 01:04:55;;;;;;;4.80;1.80;;;;;;;15.14;51.34;99551.91;25224;1309;3026991;-60
2022/09/02 01:07:26;;;;;;;3.60;2.00;;;;;;;15.07;51.53;99561.41;25060;1309;3026404;-62
2022/09/02 01:09:56;;;;;;;5.40;2.00;;;;;;;15.07;51.42;99568.67;25110;1309;3027623;-59
2022/09/02 01:12:26;;;;;;;6.40;2.30;;;;;;;15.13;51.56;99572.42;25146;1309;3026656;-58
2022/09/02 01:14:56;;;;;;;11.20;2.60;;;;;;;15.09;51.59;99576.42;25212;1312;3052499;-57
2022/09/02 01:17:26;;;;;;;7.80;1.90;;;;;;;15.10;51.64;99577.23;25116;1309;3026703;-58
2022/09/02 01:20:02;;;;;;;5.90;1.80;;;;;;;15.10;51.57;99574.25;25163;1312;3026278;-58
2022/09/02 01:22:31;;;;;;;9.40;2.20;;;;;;;15.06;51.97;99574.05;25167;1309;3052595;-61
2022/09/02 01:25:07;;;;;;;8.30;2.30;;;;;;;15.02;52.08;99576.45;25148;1309;3026861;-57
2022/09/02 01:27:36;;;;;;;4.40;1.50;;;;;;;15.06;51.83;99580.14;25156;1309;3052254;-63
2022/09/02 01:30:06;;;;;;;8.50;1.90;;;;;;;15.07;51.91;99582.26;25226;1309;3026141;-59
2022/09/02 01:32:35;;;;;;;7.20;2.00;;;;;;;15.07;51.98;99581.91;25186;1309;3049891;-62
2022/09/02 01:35:05;;;;;;;5.00;2.00;;;;;;;15.09;51.82;99584.16;25118;1309;3025936;-59
2022/09/02 01:37:34;;;;;;;4.60;1.80;;;;;;;15.12;51.73;99588.71;25061;1312;3069692;-59
2022/09/02 01:40:08;;;;;;;6.30;2.00;;;;;;;15.14;51.59;99589.48;25206;1309;3026776;-58
2022/09/02 01:42:38;;;;;;;4.70;2.30;;;;;;;15.13;51.83;99594.31;25077;1309;3052526;-60
2022/09/02 01:45:08;;;;;;;5.20;2.20;;;;;;;15.14;51.42;99594.21;25142;1312;3026882;-60
2022/09/02 01:47:39;;;;;;;4.60;2.00;;;;;;;15.16;51.53;99599.39;25134;1309;3026509;-58
2022/09/02 01:50:08;;;;;;;9.60;2.00;;;;;;;15.17;51.39;99603.50;25136;1309;3026913;-62
2022/09/02 01:52:37;;;;;;;6.90;2.20;;;;;;;15.18;51.43;99602.55;25193;1309;3052019;-60
2022/09/02 01:55:07;;;;;;;5.50;2.20;;;;;;;15.18;51.47;99599.42;25057;1312;3026803;-61
2022/09/02 01:57:36;;;;;;;6.10;2.40;;;;;;;15.15;51.51;99595.36;25079;1309;3052872;-56
2022/09/02 02:00:08;;;;;;;7.80;2.40;;;;;;;15.19;51.45;99598.96;25057;1312;3027339;-60
2022/09/02 02:02:41;;;;;;;7.10;2.80;;;;;;;15.18;51.35;99595.31;25153;1309;3056199;-61
2022/09/02 02:05:10;;;;;;;6.70;3.20;;;;;;;15.16;51.50;99600.94;25091;1310;3028385;-59
2022/09/02 02:07:42;;;;;;;5.80;3.20;;;;;;;15.09;51.49;99602.36;25114;1309;3055159;-61
2022/09/02 02:10:13;;;;;;;12.80;5.70;;;;;;;15.06;51.83;99599.45;25103;1312;3026630;-61
2022/09/02 02:12:42;;;;;;;13.10;5.40;;;;;;;15.03;51.46;99603.56;25066;1312;3029504;-60
2022/09/02 02:15:14;;;;;;;16.00;6.70;;;;;;;14.98;51.78;99608.67;25128;1309;3027063;-62
2022/09/02 02:17:43;;;;;;;12.50;6.10;;;;;;;14.94;51.86;99607.90;25180;1309;3026293;-61
2022/09/02 02:20:14;;;;;;;11.50;5.10;;;;;;;14.92;51.77;99609.79;25084;1309;3026762;-58
2022/09/02 02:22:44;;;;;;;10.00;5.20;;;;;;;14.87;52.13;99616.02;25124;1310;3052173;-60
2022/09/02 02:25:14;;;;;;;12.90;7.40;;;;;;;14.82;52.09;99618.55;25163;1309;3026832;-58
2022/09/02 02:27:44;;;;;;;15.30;6.60;;;;;;;14.76;52.69;99619.55;25143;1309;3026813;-62
2022/09/02 02:30:14;;;;;;;12.10;5.60;;;;;;;14.67;52.72;99624.98;25142;1309;3026680;-60
2022/09/02 02:32:45;;;;;;;14.70;5.70;;;;;;;14.69;52.65;99626.92;25159;1309;3026298;-57
2022/09/02 02:35:17;;;;;;;10.90;5.10;;;;;;;14.72;52.72;99630.08;25061;1312;3027623;-58
2022/09/02 02:37:49;;;;;;;10.80;5.10;;;;;;;14.75;52.61;99626.26;25156;1309;3027077;-57
2022/09/02 02:40:21;;;;;;;11.70;5.50;;;;;;;14.77;52.69;99627.91;25120;1309;3026206;-59
2022/09/02 02:42:54;;;;;;;11.20;4.60;;;;;;;14.80;52.58;99628.98;25086;1309;3026983;-62
2022/09/02 02:45:24;;;;;;;8.20;4.60;;;;;;;14.79;52.38;99629.19;25118;1309;3051918;-60
2022/09/02 02:47:54;;;;;;;9.50;3.30;;;;;;;14.74;52.73;99633.23;25103;1309;3025916;-58
2022/09/02 02:50:24;;;;;;;11.00;3.50;;;;;;;14.71;52.70;99636.61;25108;1312;3026842;-58
2022/09/02 02:52:55;;;;;;;8.50;4.20;;;;;;;14.70;52.76;99640.08;25115;1315;3027303;-61
2022/09/02 02:55:25;;;;;;;6.70;3.50;;;;;;;14.67;52.83;99643.50;25123;1310;3026640;-59
2022/09/02 02:57:54;;;;;;;6.90;3.50;;;;;;;14.64;52.90;99644.73;25094;1309;3026509;-58
2022/09/02 03:00:25;;;;;;;10.10;3.80;;;;;;;14.65;52.83;99639.73;25177;1309;3053151;-60
2022/09/02 03:03:03;;;;;;;8.20;3.80;;;;;;;14.56;53.19;99643.87;25105;1309;3027255;-60
2022/09/02 03:05:34;;;;;;;9.00;3.50;;;;;;;14.54;53.22;99647.75;25080;1307;3058815;-58
2022/09/02 03:08:04;;;;;;;10.50;4.30;;;;;;;14.47;53.28;99657.59;25145;1309;3026631;-58
2022/09/02 03:10:40;;;;;;;9.60;3.80;;;;;;;14.51;53.30;99662.92;25096;1311;3052921;-60
2022/09/02 03:13:10;;;;;;;15.80;5.40;;;;;;;14.46;53.31;99670.35;25089;1312;3026399;-59
2022/09/02 03:15:41;;;;;;;11.00;4.80;;;;;;;14.39;53.66;99672.13;25096;1309;3026853;-59
2022/09/02 03:18:10;;;;;;;11.10;5.00;;;;;;;14.38;53.89;99670.24;25118;1309;3027436;-59
2022/09/02 03:20:40;;;;;;;12.20;5.30;;;;;;;14.47;53.17;99669.53;25147;1310;3026490;-56
2022/09/02 03:23:11;;;;;;;8.00;3.90;;;;;;;14.42;53.37;99674.02;25156;1309;3026535;-59
2022/09/02 03:25:42;;;;;;;7.90;3.70;;;;;;;14.51;53.42;99679.00;25100;1309;3026841;-59
2022/09/02 03:28:18;;;;;;;8.40;3.80;;;;;;;14.52;53.58;99685.60;25116;1309;3049667;-59
2022/09/02 03:30:48;;;;;;;7.20;2.80;;;;;;;14.54;53.53;99692.51;25102;1312;3026604;-58
2022/09/02 03:33:17;;;;;;;7.10;2.90;;;;;;;14.49;53.77;99696.59;25176;1309;3026713;-58
2022/09/02 03:35:47;;;;;;;9.10;3.60;;;;;;;14.40;54.20;99695.25;25156;1309;3026268;-58
2022/09/02 03:38:16;;;;;;;9.70;2.90;;;;;;;14.44;53.84;99695.36;25077;1309;3026953;-59
2022/09/02 03:40:46;;;;;;;8.00;3.10;;;;;;;14.40;54.10;99697.55;25052;1309;3028594;-57
2022/09/02 03:43:16;;;;;;;7.80;2.90;;;;;;;14.43;53.73;99702.08;25115;1315;3026827;-59
2022/09/02 03:45:45;;;;;;;7.80;3.10;;;;;;;14.45;54.11;99704.31;25174;1309;3026350;-61
2022/09/02 03:48:16;;;;;;;9.10;3.20;;;;;;;14.40;54.37;99701.82;25130;1309;3026749;-59
2022/09/02 03:51:11;;;;;;;5.40;2.80;;;;;;;14.42;54.50;99704.62;25100;1309;3055670;-58
2022/09/02 03:53:41;;;;;;;7.50;3.30;;;;;;;14.47;54.58;99704.51;25103;1313;3026441;-61
2022/09/02 03:56:11;;;;;;;6.80;2.90;;;;;;;14.38;55.36;99708.09;25063;1309;3026324;-60
2022/09/02 03:58:42;;;;;;;8.60;3.00;;;;;;;14.35;55.44;99705.89;25088;1315;3027154;-59
2022/09/02 04:01:16;;;;;;;12.00;3.20;;;;;;;14.33;56.10;99707.80;25144;1315;3028518;-58
2022/09/02 04:03:46;;;;;;;10.00;3.90;;;;;;;14.34;56.46;99709.82;25130;1312;3052935;-59
2022/09/02 04:06:17;;;;;;;9.60;3.20;;;;;;;14.34;56.98;99714.27;25150;1312;3028205;-60
2022/09/02 04:08:48;;;;;;;13.60;3.10;;;;;;;14.31;57.45;99720.09;25050;1314;3051686;-60
2022/09/02 04:11:19;;;;;;;9.60;3.30;;;;;;;14.35;57.61;99718.20;25167;1312;3026824;-60
2022/09/02 04:13:51;;;;;;;13.60;3.50;;;;;;;14.34;58.01;99721.98;25055;1312;3051776;-59
2022/09/02 04:16:27;;;;;;;14.50;3.40;;;;;;;14.42;57.49;99723.15;25089;1312;3026985;-59
2022/09/02 04:19:00;;;;;;;7.80;3.20;;;;;;;14.43;57.37;99729.29;25081;1312;3053105;-58
2022/09/02 04:21:32;;;;;;;16.90;4.10;;;;;;;14.39;57.46;99726.22;25149;1312;3026705;-58
2022/09/02 04:24:03;;;;;;;12.00;3.50;;;;;;;14.42;57.45;99728.26;25049;1315;3026535;-58
2022/09/02 04:26:32;;;;;;;11.50;3.40;;;;;;;14.42;56.96;99730.70;25109;1312;3027307;-59
2022/09/02 04:29:01;;;;;;;11.40;3.30;;;;;;;14.41;56.75;99729.03;25105;1312;3026601;-58
2022/09/02 04:31:31;;;;;;;12.00;3.20;;;;;;;14.57;56.28;99732.30;25077;1312;3026419;-60
2022/09/02 04:34:00;;;;;;;10.30;2.80;;;;;;;14.71;55.84;99740.64;25071;1312;3027210;-58
2022/09/02 04:36:29;;;;;;;12.40;2.80;;;;;;;14.78;54.78;99742.07;25108;1312;3026897;-58
2022/09/02 04:38:59;;;;;;;7.60;2.40;;;;;;;14.82;53.75;99745.33;25107;1312;3026486;-59
2022/09/02 04:41:30;;;;;;;5.40;2.40;;;;;;;14.82;53.47;99745.55;25068;1312;3026937;-59
2022/09/02 04:44:02;;;;;;;8.60;2.50;;;;;;;14.84;53.53;99747.63;25085;1312;3027170;-58
2022/09/02 04:46:34;;;;;;;4.50;2.30;;;;;;;14.82;53.34;99754.50;25045;1312;3027669;-58
2022/09/02 04:49:07;;;;;;;7.30;2.70;;;;;;;14.92;53.41;99755.16;25043;1313;3026696;-59
2022/09/02 04:51:37;;;;;;;7.50;2.20;;;;;;;14.97;53.32;99760.77;25102;1315;3026708;-59
2022/09/02 04:54:07;;;;;;;9.60;3.00;;;;;;;14.99;52.97;99758.89;25138;1312;3027460;-59
2022/09/02 04:56:37;;;;;;;5.90;2.70;;;;;;;14.98;52.93;99758.41;25107;1315;3026664;-60
2022/09/02 04:59:07;;;;;;;9.40;3.10;;;;;;;15.00;52.92;99763.23;25084;1312;3026758;-60
2022/09/02 05:01:37;;;;;;;14.80;2.60;;;;;;;15.07;52.75;99758.95;25110;1312;3027912;-59
2022/09/02 05:04:11;;;;;;;9.30;2.50;;;;;;;15.14;52.66;99762.52;25105;1312;3052939;-59
2022/09/02 05:06:44;;;;;;;8.00;3.00;;;;;;;15.06;52.85;99760.81;25116;1312;3026530;-59
2022/09/02 05:09:17;;;;;;;10.70;3.80;;;;;;;15.13;52.99;99762.23;25063;1311;3026854;-59
2022/09/02 05:11:50;;;;;;;15.00;5.00;;;;;;;15.11;52.67;99763.30;25033;1312;3070214;-60
2022/09/02 05:14:21;;;;;;;13.00;4.60;;;;;;;15.18;52.69;99766.98;25093;1312;3029278;-58
2022/09/02 05:16:52;;;;;;;15.20;5.10;;;;;;;15.22;52.47;99770.73;25089;1312;3026383;-59
2022/09/02 05:19:22;;;;;;;11.30;4.20;;;;;;;15.27;52.77;99779.88;25065;1312;3027341;-60
2022/09/02 05:21:54;;;;;;;16.10;4.30;;;;;;;15.33;52.45;99782.08;25076;1312;3027267;-58
2022/09/02 05:24:29;;;;;;;14.10;4.10;;;;;;;15.44;52.45;99782.16;25106;1314;3049845;-59
2022/09/02 05:27:01;;;;;;;11.80;4.50;;;;;;;15.58;52.01;99783.89;25121;1312;3028776;-60
2022/09/02 05:29:31;;;;;;;7.80;3.80;;;;;;;15.62;51.92;99781.64;25137;1312;3026629;-59
2022/09/02 05:32:03;;;;;;;8.40;4.10;;;;;;;15.73;51.57;99789.64;25066;1311;3026501;-62
2022/09/02 05:34:34;;;;;;;8.00;4.00;;;;;;;15.82;51.04;99793.25;25060;1312;3054376;-60
2022/09/02 05:37:04;;;;;;;12.80;4.30;;;;;;;15.91;50.93;99801.02;25101;1312;3027467;-59
2022/09/02 05:39:34;;;;;;;10.80;4.50;;;;;;;15.99;50.41;99802.35;25063;1312;3026583;-59
2022/09/02 05:42:05;;;;;;;14.10;4.80;;;;;;;16.07;50.24;99808.61;25135;1312;3026147;-60
2022/09/02 05:44:37;;;;;;;11.00;5.60;;;;;;;16.16;49.81;99807.08;25082;1312;3026801;-60
2022/09/02 05:47:06;;;;;;;12.60;4.80;;;;;;;16.18;49.61;99805.10;25058;1312;3026839;-63
2022/09/02 05:49:36;;;;;;;13.60;5.20;;;;;;;16.28;49.43;99809.79;25079;1312;3026709;-60
2022/09/02 05:52:10;;;;;;;9.40;4.30;;;;;;;16.41;49.32;99812.81;25133;1312;3052169;-59
2022/09/02 05:54:47;;;;;;;13.50;4.80;;;;;;;16.49;48.65;99817.03;25101;1313;3054555;-60
2022/09/02 05:57:19;;;;;;;15.30;5.00;;;;;;;16.59;48.45;99822.55;25155;1312;3026322;-60
2022/09/02 05:59:58;;;;;;;16.40;6.70;;;;;;;16.71;48.31;99825.86;25064;1313;3071530;-60
2022/09/02 06:02:42;;;;;;;;;;;;;;;16.72;48.15;99820.10;25127;1313;3051875;-60
2022/09/02 06:05:17;;;;;;;20.50;7.20;;;;;;;16.80;47.92;99827.75;25059;1313;3055217;-59
2022/09/02 06:07:50;;;;;;;17.00;7.20;;;;;;;16.88;47.60;99822.75;25087;1313;3055285;-60
2022/09/02 06:10:21;;;;;;;21.50;7.20;;;;;;;17.02;47.46;99826.59;25138;1312;3026559;-60
2022/09/02 06:12:51;;;;;;;25.70;9.10;;;;;;;17.11;47.06;99827.80;25094;1312;3026636;-60
2022/09/02 06:15:26;;;;;;;25.70;8.60;;;;;;;17.20;46.92;99831.64;25140;1312;3026605;-62
2022/09/02 06:17:58;;;;;;;18.30;9.10;;;;;;;17.32;46.36;99833.01;25094;1312;3053794;-60
2022/09/02 06:20:31;;;;;;;23.90;9.80;;;;;;;17.34;46.11;99838.27;25069;1312;3026927;-61
2022/09/02 06:23:01;;;;;;;29.70;10.80;;;;;;;17.45;46.05;99840.89;25154;1312;3027191;-60
2022/09/02 06:25:30;;;;;;;22.70;10.30;;;;;;;17.46;45.70;99838.02;25100;1312;3026139;-60
2022/09/02 06:28:00;;;;;;;28.40;12.50;;;;;;;17.57;45.84;99840.27;25067;1312;3069473;-61
2022/09/02 06:30:29;;;;;;;23.10;10.30;;;;;;;17.60;45.22;99842.88;25169;1312;3026294;-61
2022/09/02 06:33:02;;;;;;;27.30;10.30;;;;;;;17.69;45.39;99845.14;25149;1312;3026595;-59
2022/09/02 06:35:37;;;;;;;24.70;10.40;;;;;;;17.79;45.04;99850.13;25105;1312;3027140;-61
2022/09/02 06:38:07;;;;;;;29.20;11.90;;;;;;;17.87;45.01;99846.58;25083;1312;3055165;-61
2022/09/02 06:40:51;;;;;;;21.90;11.30;;;;;;;17.93;44.78;99849.62;25140;1312;3027035;-61
2022/09/02 06:43:25;;;;;;;16.20;8.60;;;;;;;18.04;44.58;99847.51;25172;1313;3055650;-61
2022/09/02 06:46:16;;;;;;;21.60;8.40;;;;;;;18.21;43.78;99846.36;25135;1312;3054115;-59
2022/09/02 06:48:48;;;;;;;16.70;6.50;;;;;;;18.30;43.70;99844.38;25075;1315;3069553;-60
2022/09/02 06:51:20;;;;;;;16.10;6.30;;;;;;;18.39;43.69;99844.83;25053;1312;3028756;-58
2022/09/02 06:53:50;;;;;;;17.50;4.90;;;;;;;18.49;43.38;99842.57;25037;1312;3028277;-60
2022/09/02 06:56:19;;;;;;;11.10;4.20;;;;;;;18.61;43.44;99847.73;25170;1309;3026443;-60
2022/09/02 06:58:49;;;;;;;8.30;3.60;;;;;;;18.53;42.84;99846.78;25120;1310;3051158;-59
2022/09/02 07:01:26;;;;;;;9.80;3.70;;;;;;;18.65;42.71;99843.06;25144;1309;3026847;-61
2022/09/02 07:06:48;;;;;;;12.00;3.20;;;;;;;18.83;42.11;99848.95;25118;1312;3051566;-62
2022/09/02 07:09:21;;;;;;;12.60;3.70;;;;;;;18.93;41.78;99847.21;25049;1312;3026723;-63
2022/09/02 07:11:51;;;;;;;13.20;3.60;;;;;;;19.10;41.01;99841.98;25119;1312;3031941;-61
2022/09/02 07:14:23;;;;;;;9.20;3.00;;;;;;;19.20;40.57;99837.31;25131;1310;3026920;-60
2022/09/02 07:16:56;;;;;;;6.90;2.80;;;;;;;19.27;40.09;99843.48;25087;1312;3052845;-60
2022/09/02 07:19:27;;;;;;;6.60;2.10;;;;;;;19.34;40.21;99840.38;25106;1312;3026488;-59
2022/09/02 07:21:56;;;;;;;8.50;2.80;;;;;;;19.46;40.22;99846.30;25083;1312;3026459;-62
2022/09/02 07:24:26;;;;;;;7.00;3.10;;;;;;;19.56;39.81;99844.58;25161;1313;3027526;-58
2022/09/02 07:26:55;;;;;;;5.40;2.50;;;;;;;19.56;39.49;99843.45;25078;1315;3026198;-59
2022/09/02 07:29:24;;;;;;;9.50;2.60;;;;;;;19.53;39.08;99843.53;25067;1313;3052628;-60
2022/09/02 07:31:53;;;;;;;6.60;2.00;;;;;;;19.37;39.10;99846.23;25121;1312;3026445;-59
2022/09/02 07:34:23;;;;;;;6.70;1.80;;;;;;;19.45;39.44;99848.75;25099;1312;3055350;-58
2022/09/02 07:36:52;;;;;;;5.60;1.70;;;;;;;19.64;38.80;99839.02;25109;1312;3027052;-59
2022/09/02 07:39:21;;;;;;;3.30;1.80;;;;;;;19.62;37.78;99835.87;25120;1312;3026090;-57
2022/09/02 07:41:51;;;;;;;3.30;1.80;;;;;;;19.62;38.00;99832.23;25082;1315;3026994;-60
2022/09/02 07:44:22;;;;;;;9.40;1.90;;;;;;;19.71;37.67;99835.73;25051;1313;3028776;-58
2022/09/02 07:46:52;;;;;;;9.50;1.80;;;;;;;19.80;37.91;99838.09;25067;1312;3029005;-58
2022/09/02 07:49:22;;;;;;;4.60;1.50;;;;;;;19.85;37.46;99837.59;25120;1312;3028280;-60
2022/09/02 07:51:52;;;;;;;6.60;1.30;;;;;;;19.91;37.52;99835.67;25149;1309;3026975;-61
2022/09/02 07:54:22;;;;;;;3.80;1.40;;;;;;;19.96;37.24;99830.91;25221;1309;3026800;-62
2022/09/02 07:56:55;;;;;;;2.80;1.40;;;;;;;20.04;36.63;99823.77;25183;1312;3027072;-62
2022/09/02 07:59:24;;;;;;;2.40;1.30;;;;;;;19.99;35.65;99828.98;25141;1312;3027606;-60
2022/09/02 08:01:55;;;;;;;5.00;1.10;;;;;;;20.21;35.10;99830.15;25174;1312;3027918;-61
2022/09/02 08:04:24;;;;;;;6.50;1.10;;;;;;;20.07;33.81;99829.85;25079;1312;3026551;-60
2022/09/02 08:06:54;;;;;;;3.70;1.10;;;;;;;20.10;33.25;99831.73;25055;1312;3030199;-61
2022/09/02 08:09:23;;;;;;;4.40;0.90;;;;;;;19.96;32.41;99836.27;25361;1312;3026591;-59
2022/09/02 08:11:54;;;;;;;4.40;1.10;;;;;;;19.98;32.81;99836.73;25084;1310;3026974;-57
2022/09/02 08:14:25;;;;;;;4.00;1.10;;;;;;;20.03;32.89;99834.13;25124;1312;3028133;-61
2022/09/02 08:16:55;;;;;;;5.10;1.00;;;;;;;20.17;33.10;99834.82;25092;1311;3055727;-58
2022/09/02 08:19:25;;;;;;;4.50;1.10;;;;;;;20.26;32.35;99827.32;25091;1310;3026846;-61
2022/09/02 08:21:55;;;;;;;3.10;1.10;;;;;;;20.18;31.49;99835.73;24425;1310;4558741;-61
2022/09/02 08:24:24;;;;;;;3.40;1.10;;;;;;;20.07;31.26;99832.73;25090;1310;3054782;-60
2022/09/02 08:26:53;;;;;;;8.60;1.00;;;;;;;20.08;31.21;99823.55;25133;1312;3026436;-60
2022/09/02 08:29:22;;;;;;;2.50;1.00;;;;;;;20.37;31.68;99825.63;25093;1312;3026871;-59
2022/09/02 08:31:51;;;;;;;1.30;0.80;;;;;;;20.62;31.50;99821.58;25182;1312;3055797;-59
2022/09/02 08:34:20;;;;;;;3.50;0.80;;;;;;;20.78;30.64;99825.82;25093;1312;3026621;-59
2022/09/02 08:36:49;;;;;;;4.80;0.80;;;;;;;20.55;30.42;99828.64;25162;1312;3054406;-59
2022/09/02 08:39:18;;;;;;;2.10;0.80;;;;;;;20.50;30.18;99823.61;25121;1312;3026562;-58
2022/09/02 08:41:57;;;;;;;4.80;0.90;;;;;;;20.64;30.37;99823.03;25163;1312;3054141;-59
2022/09/02 08:44:27;;;;;;;4.10;0.90;;;;;;;20.82;29.86;99822.33;25099;1312;3055665;-61
2022/09/02 08:46:58;;;;;;;1.10;0.50;;;;;;;20.90;29.05;99824.07;25102;1312;3026639;-58
2022/09/02 08:49:33;;;;;;;0.80;0.60;;;;;;;21.06;28.79;99824.60;25114;1312;3028106;-60
2022/09/02 08:52:03;;;;;;;3.90;0.80;;;;;;;21.28;28.75;99818.17;25069;1312;3054478;-59
2022/09/02 08:54:40;;;;;;;3.40;0.60;;;;;;;21.13;28.48;99818.21;25035;1315;3026550;-59
2022/09/02 08:57:09;;;;;;;0.90;0.60;;;;;;;21.03;29.09;99816.92;25172;1310;3068225;-58
2022/09/02 08:59:38;;;;;;;2.40;1.10;;;;;;;21.03;29.00;99814.03;25078;1312;3026660;-58
2022/09/02 09:02:13;;;;;;;1.60;0.80;;;;;;;21.06;29.00;99810.90;25068;1312;3052812;-59
2022/09/02 09:04:51;;;;;;;6.20;1.20;;;;;;;21.25;29.42;99810.64;25063;1312;3071052;-59
2022/09/02 09:07:48;;;;;;;2.40;0.90;;;;;;;21.47;29.32;99812.20;25065;1312;3051892;-58
2022/09/02 09:10:24;;;;;;;2.50;0.80;;;;;;;21.60;28.60;99817.13;25112;1312;3055071;-59
2022/09/02 09:13:00;;;;;;;5.60;1.80;;;;;;;21.51;28.72;99814.64;25166;1312;3052095;-60
2022/09/02 09:15:51;;;;;;;1.30;0.70;;;;;;;21.38;28.27;99811.52;25105;1312;3056606;-62
2022/09/02 09:18:33;;;;;;;3.30;1.00;;;;;;;21.32;28.34;99813.90;25121;1312;3049597;-61
2022/09/02 09:21:03;;;;;;;2.20;0.80;;;;;;;21.61;28.29;99814.71;25064;1312;3055601;-59
2022/09/02 09:23:37;;;;;;;2.10;0.70;;;;;;;21.77;28.23;99815.43;25100;1312;3026289;-60
2022/09/02 09:26:09;;;;;;;1.60;0.70;;;;;;;21.81;27.60;99820.84;25056;1312;3069060;-60
2022/09/02 09:28:48;;;;;;;1.20;0.60;;;;;;;21.76;27.05;99816.91;25086;1315;3026653;-60
2022/09/02 09:31:21;;;;;;;1.90;0.50;;;;;;;21.89;26.73;99819.55;25142;1312;3055368;-60
2022/09/02 09:34:01;;;;;;;1.50;0.50;;;;;;;22.05;26.57;99817.74;25109;1312;3052755;-56
2022/09/02 09:36:40;;;;;;;1.30;0.90;;;;;;;22.07;26.31;99814.30;25078;1312;3058564;-61
2022/09/02 09:39:23;;;;;;;1.90;0.90;;;;;;;21.91;26.35;99811.54;25100;1312;3052234;-61
2022/09/02 09:41:57;;;;;;;1.20;0.70;;;;;;;21.86;26.51;99815.09;25073;1312;3053900;-61
2022/09/02 09:45:50;;;;;;;2.90;0.70;;;;;;;22.11;26.04;99821.05;31391;1319;3027223;-59
2022/09/02 09:48:27;;;;;;;4.10;1.10;;;;;;;22.34;25.60;99824.38;24933;1319;3027138;-62
2022/09/02 09:50:57;;;;;;;2.40;0.50;;;;;;;22.23;23.85;99826.77;24920;1320;3054132;-60
2022/09/02 09:53:31;;;;;;;1.80;0.80;;;;;;;21.88;25.01;99828.61;24974;1318;3026747;-59
2022/09/02 09:56:00;;;;;;;3.20;0.90;;;;;;;21.97;25.44;99819.80;24973;1319;3051990;-60
2022/09/02 09:58:34;;;;;;;3.20;0.90;;;;;;;22.10;25.93;99827.94;24479;1316;3039502;-60
2022/09/02 10:01:33;;;;;;;2.60;0.80;;;;;;;22.31;25.50;99824.86;25017;1316;3047405;-59
2022/09/02 10:04:10;;;;;;;1.20;0.60;;;;;;;22.68;25.04;99823.21;25022;1318;3052412;-59
2022/09/02 10:06:41;;;;;;;4.00;0.90;;;;;;;22.65;25.10;99822.04;25085;1319;3052685;-61
2022/09/02 10:09:13;;;;;;;1.20;0.70;;;;;;;22.64;24.76;99827.02;24959;1318;3028869;-59
2022/09/02 10:11:54;;;;;;;1.10;0.60;;;;;;;22.83;24.64;99826.33;25012;1319;3026332;-59
2022/09/02 10:14:34;;;;;;;3.90;0.80;;;;;;;23.07;24.57;99818.08;25065;1316;3055788;-60
2022/09/02 10:17:17;;;;;;;1.50;0.60;;;;;;;23.17;24.91;99813.27;25058;1319;3050316;-60
2022/09/02 10:19:59;;;;;;;2.50;0.90;;;;;;;23.18;25.56;99814.83;25081;1316;3070128;-59
2022/09/02 10:22:48;;;;;;;1.90;1.00;;;;;;;23.29;25.42;99812.02;25072;1316;3049024;-59
2022/09/02 10:25:41;;;;;;;2.50;0.90;;;;;;;23.39;25.95;99818.75;25030;1316;3055656;-59
2022/09/02 10:28:19;;;;;;;2.70;1.10;;;;;;;23.50;25.89;99813.85;25043;1316;3052137;-60
2022/09/02 10:31:00;;;;;;;3.60;1.30;;;;;;;23.67;25.92;99811.77;25035;1316;3058576;-61
2022/09/02 10:33:49;;;;;;;2.30;1.00;;;;;;;23.78;25.75;99813.27;25084;1316;3052684;-60
2022/09/02 10:36:41;;;;;;;6.40;1.40;;;;;;;23.77;25.90;99814.15;25076;1313;3053156;-61
2022/09/02 10:39:28;;;;;;;2.20;0.90;;;;;;;23.76;25.82;99809.23;25199;1313;3053597;-60
2022/09/02 10:42:07;;;;;;;5.10;1.10;;;;;;;23.65;25.56;99813.30;25080;1313;3068343;-60
2022/09/02 10:44:47;;;;;;;4.90;1.00;;;;;;;23.35;25.11;99815.13;25057;1315;3049309;-59
2022/09/02 10:47:31;;;;;;;2.10;0.80;;;;;;;23.31;25.09;99810.74;25083;1313;3054936;-58
2022/09/02 10:50:06;;;;;;;2.30;0.90;;;;;;;23.52;25.04;99809.02;25064;1313;3054928;-57
2022/09/02 10:53:03;;;;;;;4.60;1.50;;;;;;;23.64;24.74;99808.61;25109;1313;3058440;-58
2022/09/02 10:56:02;;;;;;;3.70;0.90;;;;;;;23.63;23.93;99816.75;25149;1316;3054873;-60
2022/09/02 10:58:45;;;;;;;3.20;1.30;;;;;;;23.75;24.39;99814.63;25077;1316;3056818;-59
2022/09/02 11:01:18;;;;;;;2.20;1.00;;;;;;;23.96;25.59;99819.53;25061;1316;3052905;-59
2022/09/02 11:04:02;;;;;;;3.00;1.00;;;;;;;24.07;25.49;99816.90;25117;1313;3026601;-58
2022/09/02 11:06:35;;;;;;;1.70;0.90;;;;;;;24.23;23.56;99816.16;25089;1316;3053297;-60
2022/09/02 11:09:11;;;;;;;2.00;0.70;;;;;;;24.25;23.02;99812.20;25086;1316;3026567;-59
2022/09/02 11:11:46;;;;;;;3.40;0.90;;;;;;;23.97;23.49;99809.80;25073;1316;3055886;-61
2022/09/02 11:14:33;;;;;;;5.20;1.10;;;;;;;24.10;23.95;99809.97;25089;1316;3059295;-59
2022/09/02 11:17:19;;;;;;;2.30;1.20;;;;;;;24.27;24.64;99805.89;25093;1316;3049017;-58
2022/09/02 11:19:57;;;;;;;3.80;1.40;;;;;;;24.43;23.89;99808.54;25101;1316;3053138;-59
2022/09/02 11:22:41;;;;;;;3.70;1.00;;;;;;;24.52;23.14;99806.30;25134;1316;3051377;-59
2022/09/02 11:25:17;;;;;;;2.30;1.10;;;;;;;24.27;22.84;99806.99;25090;1316;3071714;-59
2022/09/02 11:28:30;;;;;;;2.80;1.00;;;;;;;24.40;22.76;99806.77;25093;1316;3049533;-60
2022/09/02 11:31:14;;;;;;;2.60;0.90;;;;;;;24.32;22.43;99803.38;25042;1316;3052500;-60
2022/09/02 11:34:10;;;;;;;6.00;1.30;;;;;;;24.33;22.53;99807.61;25104;1313;3052330;-58
2022/09/02 11:36:39;;;;;;;1.90;0.70;;;;;;;24.39;23.03;99804.86;25093;1316;3058287;-59
2022/09/02 11:39:14;;;;;;;4.80;1.10;;;;;;;24.37;22.99;99803.98;25151;1316;3025965;-60
2022/09/02 11:42:07;;;;;;;3.90;1.30;;;;;;;24.35;23.17;99805.48;25144;1316;3055403;-59
2022/09/02 11:44:41;;;;;;;1.30;0.80;;;;;;;24.40;23.16;99810.94;25065;1316;3059341;-58
2022/09/02 11:47:25;;;;;;;2.10;0.70;;;;;;;24.36;22.82;99810.75;25100;1316;3052438;-59